createdAt,value
2023-03-15T00:02:31.533Z,2.78
2023-03-15T00:05:34.814Z,2.38
2023-03-15T00:08:37.467Z,2.67
2023-03-15T00:11:40.554Z,3.58
2023-03-15T00:14:43.162Z,1.80
2023-03-15T00:17:45.619Z,3.40
2023-03-15T00:20:48.998Z,2.10
2023-03-15T00:23:53.037Z,3.53
2023-03-15T00:26:55.573Z,2.22
2023-03-15T00:29:58.258Z,1.57
2023-03-15T00:33:00.889Z,1.73
2023-03-15T00:36:06.629Z,1.52
2023-03-15T00:39:09.583Z,2.10
2023-03-15T00:42:16.627Z,2.15
2023-03-15T00:45:21.289Z,1.57
2023-03-15T00:48:24.104Z,1.40
2023-03-15T00:51:26.792Z,1.90
2023-03-15T00:54:29.684Z,1.30
2023-03-15T00:57:35.051Z,1.33
2023-03-15T01:00:38.345Z,1.70
2023-03-15T01:03:46.093Z,1.48
2023-03-15T01:06:48.679Z,1.40
2023-03-15T01:09:51.888Z,1.67
2023-03-15T01:12:54.324Z,2.13
2023-03-15T01:15:58.838Z,1.47
2023-03-15T01:19:01.274Z,1.27
2023-03-15T01:22:03.745Z,1.20
2023-03-15T01:25:06.643Z,2.00
2023-03-15T01:28:09.590Z,1.35
2023-03-15T01:31:23.987Z,1.30
2023-03-15T01:34:26.580Z,1.30
2023-03-15T01:37:29.209Z,1.10
2023-03-15T01:40:32.267Z,1.58
2023-03-15T01:43:35.600Z,1.50
2023-03-15T01:46:38.145Z,1.60
2023-03-15T01:50:08.698Z,1.20
2023-03-15T01:53:12.618Z,2.05
2023-03-15T01:56:15.841Z,1.25
2023-03-15T01:59:24.093Z,0.88
2023-03-15T02:02:28.041Z,1.67
2023-03-15T02:05:36.027Z,1.10
2023-03-15T02:08:44.920Z,1.25
2023-03-15T02:11:48.058Z,3.08
2023-03-15T02:14:54.267Z,1.92
2023-03-15T02:17:58.968Z,1.30
2023-03-15T02:21:22.713Z,1.45
2023-03-15T02:24:44.455Z,1.90
2023-03-15T02:27:47.804Z,3.20
2023-03-15T02:30:52.406Z,2.55
2023-03-15T02:33:57.638Z,1.47
2023-03-15T02:37:00.127Z,1.27
2023-03-15T02:40:21.719Z,1.70
2023-03-15T02:43:29.194Z,2.28
2023-03-15T02:46:31.702Z,2.08
2023-03-15T02:49:40.670Z,0.80
2023-03-15T02:52:44.883Z,1.08
2023-03-15T02:55:47.351Z,3.20
2023-03-15T02:58:52.254Z,2.05
2023-03-15T03:01:54.836Z,1.77
2023-03-15T03:04:57.344Z,1.30
2023-03-15T03:07:59.973Z,1.60
2023-03-15T03:11:02.665Z,1.30
2023-03-15T03:14:06.128Z,1.65
2023-03-15T03:17:08.867Z,1.27
2023-03-15T03:20:14.196Z,0.80
2023-03-15T03:23:21.264Z,1.25
2023-03-15T03:26:27.878Z,1.10
2023-03-15T03:29:31.150Z,1.75
2023-03-15T03:32:37.569Z,1.45
2023-03-15T03:35:40.404Z,1.10
2023-03-15T03:38:45.544Z,1.40
2023-03-15T03:41:48.360Z,1.27
2023-03-15T03:44:51.377Z,0.82
2023-03-15T03:47:55.155Z,0.90
2023-03-15T03:50:58.839Z,1.40
2023-03-15T03:54:02.225Z,0.70
2023-03-15T03:57:05.207Z,1.27
2023-03-15T04:00:15.056Z,1.33
2023-03-15T04:03:18.759Z,0.88
2023-03-15T04:06:25.203Z,0.90
2023-03-15T04:09:28.559Z,1.33
2023-03-15T04:12:31.285Z,0.75
2023-03-15T04:15:34.739Z,0.70
2023-03-15T04:18:37.216Z,0.77
2023-03-15T04:21:39.956Z,0.60
2023-03-15T04:25:03.183Z,0.80
2023-03-15T04:28:27.969Z,0.63
2023-03-15T04:31:38.862Z,1.33
2023-03-15T04:34:51.757Z,0.90
2023-03-15T04:38:12.321Z,0.57
2023-03-15T04:41:36.968Z,1.00
2023-03-15T04:44:54.921Z,0.73
2023-03-15T04:48:17.806Z,1.55
2023-03-15T04:51:44.179Z,1.08
2023-03-15T04:55:10.021Z,0.93
2023-03-15T04:58:41.749Z,1.95
2023-03-15T05:02:02.746Z,1.85
2023-03-15T05:05:15.470Z,0.90
2023-03-15T05:08:41.120Z,1.27
2023-03-15T05:12:02.508Z,1.67
2023-03-15T05:15:27.031Z,1.33
2023-03-15T05:19:08.626Z,1.30
2023-03-15T05:22:19.975Z,1.40
2023-03-15T05:25:43.752Z,1.08
2023-03-15T05:29:00.437Z,1.63
2023-03-15T05:32:26.691Z,2.00
2023-03-15T05:35:49.258Z,2.15
2023-03-15T05:39:16.666Z,1.67
2023-03-15T05:42:39.645Z,2.95
2023-03-15T05:46:01.554Z,1.90
2023-03-15T05:49:22.952Z,2.40
2023-03-15T05:52:42.709Z,2.03
2023-03-15T05:55:56.399Z,3.20
2023-03-15T05:59:05.296Z,2.50
2023-03-15T06:02:25.216Z,2.30
2023-03-15T06:05:43.547Z,2.58
2023-03-15T06:08:51.298Z,2.42
2023-03-15T06:11:54.216Z,2.58
2023-03-15T06:14:57.368Z,2.50
2023-03-15T06:17:59.893Z,2.40
2023-03-15T06:21:02.826Z,2.55
2023-03-15T06:24:06.600Z,3.17
2023-03-15T06:27:10.567Z,3.53
2023-03-15T06:30:15.957Z,2.38
2023-03-15T06:33:21.597Z,2.87
2023-03-15T06:36:25.018Z,3.22
2023-03-15T06:39:27.555Z,3.13
2023-03-15T06:42:30.032Z,2.92
2023-03-15T06:45:33.728Z,3.10
2023-03-15T06:48:36.992Z,3.90
2023-03-15T06:51:40.219Z,2.67
2023-03-15T06:54:45.165Z,3.30
2023-03-15T06:57:47.579Z,3.53
2023-03-15T07:00:52.542Z,3.10
2023-03-15T07:03:55.059Z,3.63
2023-03-15T07:06:57.670Z,3.45
2023-03-15T07:10:00.835Z,2.95
2023-03-15T07:13:05.173Z,4.38
2023-03-15T07:16:07.706Z,3.50
2023-03-15T07:19:10.376Z,5.17
2023-03-15T07:22:12.803Z,2.83
2023-03-15T07:25:15.485Z,3.63
2023-03-15T07:28:18.030Z,3.30
2023-03-15T07:31:20.525Z,3.38
2023-03-15T07:34:22.996Z,4.70
2023-03-15T07:37:25.438Z,3.22
2023-03-15T07:40:28.857Z,3.65
2023-03-15T07:43:31.691Z,3.97
2023-03-15T07:46:55.030Z,4.50
2023-03-15T07:49:57.935Z,7.20
2023-03-15T07:53:01.146Z,3.20
2023-03-15T07:56:04.290Z,2.67
2023-03-15T07:59:06.967Z,2.97
2023-03-15T08:02:14.539Z,3.38
2023-03-15T08:05:20.076Z,3.23
2023-03-15T08:08:22.700Z,3.45
2023-03-15T08:11:25.250Z,3.50
2023-03-15T08:14:28.409Z,2.80
2023-03-15T08:17:30.832Z,3.20
2023-03-15T08:20:36.753Z,2.87
2023-03-15T08:23:39.389Z,2.65
2023-03-15T08:26:43.323Z,3.78
2023-03-15T08:29:45.901Z,2.13
2023-03-15T08:32:50.162Z,2.15
2023-03-15T08:35:56.424Z,3.33
2023-03-15T08:38:58.940Z,3.25
2023-03-15T08:42:01.629Z,2.05
2023-03-15T08:45:07.119Z,3.55
2023-03-15T08:48:09.746Z,2.75
2023-03-15T08:51:13.873Z,2.97
2023-03-15T08:54:16.492Z,2.17
2023-03-15T08:57:18.930Z,2.22
2023-03-15T09:00:23.262Z,3.92
2023-03-15T09:03:25.791Z,3.10
2023-03-15T09:06:31.525Z,4.00
2023-03-15T09:09:34.560Z,4.82
2023-03-15T09:12:37.074Z,3.50
2023-03-15T09:15:39.481Z,3.72
2023-03-15T09:18:44.090Z,2.65
2023-03-15T09:21:47.221Z,4.07
2023-03-15T09:24:50.487Z,4.85
2023-03-15T09:27:54.358Z,3.38
2023-03-15T09:30:59.535Z,3.88
2023-03-15T09:34:03.404Z,3.35
2023-03-15T09:37:06.049Z,5.80
2023-03-15T09:40:15.580Z,3.15
2023-03-15T09:43:36.990Z,4.43
2023-03-15T09:46:45.042Z,2.80
2023-03-15T09:50:07.824Z,3.22
2023-03-15T09:53:27.592Z,4.43
2023-03-15T09:56:38.388Z,3.35
2023-03-15T09:59:46.412Z,5.10
2023-03-15T10:03:01.696Z,3.65
2023-03-15T10:06:30.016Z,4.32
2023-03-15T10:09:33.806Z,4.20
2023-03-15T10:12:42.133Z,2.95
2023-03-15T10:15:57.634Z,2.20
2023-03-15T10:19:25.653Z,2.33
2023-03-15T10:22:50.189Z,3.95
2023-03-15T10:25:54.399Z,3.00
2023-03-15T10:28:57.374Z,5.53
2023-03-15T10:32:00.529Z,5.15
2023-03-15T10:35:13.573Z,3.25
2023-03-15T10:38:21.758Z,4.75
2023-03-15T10:41:37.476Z,4.03
2023-03-15T10:44:40.293Z,7.07
2023-03-15T10:47:50.404Z,3.70
2023-03-15T10:51:01.415Z,4.88
2023-03-15T10:54:22.211Z,5.78
2023-03-15T10:57:28.329Z,5.00
2023-03-15T11:00:37.960Z,4.13
2023-03-15T11:03:41.784Z,6.32
2023-03-15T11:06:46.284Z,4.78
2023-03-15T11:09:54.598Z,4.00
2023-03-15T11:13:13.726Z,5.20
2023-03-15T11:16:16.153Z,3.65
2023-03-15T11:19:25.671Z,3.30
2023-03-15T11:22:28.137Z,3.85
2023-03-15T11:25:31.840Z,6.65
2023-03-15T11:28:37.733Z,5.23
2023-03-15T11:31:40.917Z,6.05
2023-03-15T11:35:06.650Z,7.35
2023-03-15T11:38:17.338Z,2.90
2023-03-15T11:41:35.738Z,5.80
2023-03-15T11:44:46.944Z,3.97
2023-03-15T11:48:01.754Z,4.97
2023-03-15T11:51:05.871Z,4.30
2023-03-15T11:54:11.362Z,3.92
2023-03-15T11:57:29.033Z,2.70
2023-03-15T12:00:36.647Z,4.93
2023-03-15T12:03:44.362Z,2.63
2023-03-15T12:06:46.860Z,4.13
2023-03-15T12:09:52.721Z,4.68
2023-03-15T12:13:07.738Z,2.25
2023-03-15T12:16:12.089Z,4.00
2023-03-15T12:19:17.947Z,3.80
2023-03-15T12:22:20.797Z,2.75
2023-03-15T12:25:45.523Z,3.00
2023-03-15T12:28:58.823Z,2.97
2023-03-15T12:32:04.471Z,4.50
2023-03-15T12:35:17.534Z,4.60
2023-03-15T12:38:23.766Z,3.35
2023-03-15T12:41:36.698Z,3.08
2023-03-15T12:44:41.959Z,2.95
2023-03-15T12:47:44.338Z,3.83
2023-03-15T12:50:48.167Z,2.80
2023-03-15T12:53:54.640Z,3.78
2023-03-15T12:57:02.699Z,3.83
2023-03-15T13:00:15.764Z,2.92
2023-03-15T13:03:22.187Z,2.63
2023-03-15T13:06:49.207Z,5.28
2023-03-15T13:10:24.063Z,4.38
2023-03-15T13:13:38.134Z,4.15
2023-03-15T13:16:51.088Z,4.70
2023-03-15T13:20:11.218Z,4.70
2023-03-15T13:23:26.262Z,2.72
2023-03-15T13:26:35.684Z,2.88
2023-03-15T13:29:38.280Z,3.30
2023-03-15T13:32:44.446Z,4.68
2023-03-15T13:35:54.154Z,3.47
2023-03-15T13:38:57.703Z,4.80
2023-03-15T13:42:17.905Z,2.95
2023-03-15T13:45:23.239Z,3.42
2023-03-15T13:48:34.749Z,3.97
2023-03-15T13:51:39.249Z,3.70
2023-03-15T13:54:44.408Z,3.90
2023-03-15T13:57:48.325Z,5.60
2023-03-15T14:01:04.487Z,3.20
2023-03-15T14:04:12.976Z,4.53
2023-03-15T14:07:35.310Z,3.47
2023-03-15T14:10:40.008Z,4.57
2023-03-15T14:13:52.578Z,3.70
2023-03-15T14:17:05.239Z,2.97
2023-03-15T14:20:15.751Z,2.67
2023-03-15T14:23:22.749Z,5.00
2023-03-15T14:26:29.913Z,5.20
2023-03-15T14:29:37.506Z,2.00
2023-03-15T14:32:52.828Z,6.15
2023-03-15T14:36:00.037Z,2.42
2023-03-15T14:39:02.805Z,4.27
2023-03-15T14:42:07.874Z,6.18
2023-03-15T14:45:10.660Z,3.17
2023-03-15T14:48:28.721Z,4.00
2023-03-15T14:51:33.182Z,5.78
2023-03-15T14:54:35.682Z,4.60
2023-03-15T14:57:38.516Z,3.22
2023-03-15T15:01:00.086Z,4.30
2023-03-15T15:04:04.086Z,2.95
2023-03-15T15:07:06.547Z,2.53
2023-03-15T15:10:09.596Z,2.70
2023-03-15T15:13:24.164Z,3.58
2023-03-15T15:16:27.121Z,3.90
2023-03-15T15:19:29.890Z,4.18
2023-03-15T15:22:32.564Z,3.65
2023-03-15T15:25:35.680Z,5.57
2023-03-15T15:28:38.183Z,5.40
2023-03-15T15:31:41.703Z,3.08
2023-03-15T15:34:44.670Z,2.83
2023-03-15T15:37:50.082Z,4.35
2023-03-15T15:40:53.647Z,2.90
2023-03-15T15:43:57.017Z,4.20
2023-03-15T15:47:01.382Z,3.15
2023-03-15T15:50:04.263Z,2.63
2023-03-15T15:53:07.624Z,3.53
2023-03-15T15:56:14.452Z,3.83
2023-03-15T15:59:17.731Z,3.35
2023-03-15T16:02:23.102Z,4.15
2023-03-15T16:05:28.830Z,3.47
2023-03-15T16:08:37.778Z,3.85
2023-03-15T16:11:40.986Z,6.87
2023-03-15T16:14:44.041Z,3.30
2023-03-15T16:17:47.014Z,3.20
2023-03-15T16:20:51.616Z,3.13
2023-03-15T16:24:02.054Z,3.72
2023-03-15T16:27:07.224Z,4.87
2023-03-15T16:30:23.352Z,4.18
2023-03-15T16:33:27.177Z,5.10
2023-03-15T16:36:34.459Z,3.58
2023-03-15T16:39:38.191Z,2.40
2023-03-15T16:42:41.943Z,3.87
2023-03-15T16:45:45.259Z,3.70
2023-03-15T16:48:47.836Z,2.63
2023-03-15T16:51:53.403Z,3.22
2023-03-15T16:54:56.327Z,3.80
2023-03-15T16:58:02.775Z,3.90
2023-03-15T17:01:08.325Z,3.25
2023-03-15T17:04:11.145Z,5.70
2023-03-15T17:07:14.862Z,2.80
2023-03-15T17:10:23.325Z,7.05
2023-03-15T17:13:29.886Z,3.90
2023-03-15T17:16:32.847Z,5.63
2023-03-15T17:19:35.327Z,4.80
2023-03-15T17:22:38.950Z,6.15
2023-03-15T17:25:41.525Z,3.45
2023-03-15T17:28:46.013Z,3.37
2023-03-15T17:31:49.070Z,4.22
2023-03-15T17:34:52.380Z,4.63
2023-03-15T17:37:55.745Z,5.13
2023-03-15T17:41:00.010Z,5.80
2023-03-15T17:44:03.811Z,4.73
2023-03-15T17:47:12.914Z,3.70
2023-03-15T17:50:16.254Z,4.07
2023-03-15T17:53:21.298Z,5.72
2023-03-15T17:56:24.416Z,9.98
2023-03-15T17:59:27.287Z,5.70
2023-03-15T18:02:32.240Z,4.45
2023-03-15T18:05:36.564Z,6.78
2023-03-15T18:08:39.334Z,6.00
2023-03-15T18:11:43.622Z,6.63
2023-03-15T18:14:47.486Z,5.33
2023-03-15T18:17:50.930Z,5.20
2023-03-15T18:20:54.045Z,4.53
2023-03-15T18:23:58.411Z,3.50
2023-03-15T18:27:02.044Z,3.25
2023-03-15T18:30:06.773Z,3.87
2023-03-15T18:33:11.150Z,5.35
2023-03-15T18:36:13.738Z,4.43
2023-03-15T18:39:17.253Z,5.85
2023-03-15T18:42:20.112Z,5.88
2023-03-15T18:45:26.945Z,5.27
2023-03-15T18:48:40.136Z,5.95
2023-03-15T18:51:43.837Z,4.20
2023-03-15T18:54:46.765Z,5.68
2023-03-15T18:57:52.096Z,6.47
2023-03-15T19:00:55.709Z,6.03
2023-03-15T19:03:58.352Z,5.57
2023-03-15T19:07:01.195Z,7.68
2023-03-15T19:10:06.555Z,4.93
2023-03-15T19:13:09.654Z,6.18
2023-03-15T19:16:12.910Z,4.47
2023-03-15T19:19:35.612Z,6.38
2023-03-15T19:22:39.637Z,6.82
2023-03-15T19:25:42.104Z,6.00
2023-03-15T19:28:45.167Z,6.35
2023-03-15T19:31:47.874Z,6.60
2023-03-15T19:34:50.933Z,10.00
2023-03-15T19:37:53.792Z,11.15
2023-03-15T19:40:58.640Z,6.82
2023-03-15T19:44:01.532Z,9.83
2023-03-15T19:47:05.303Z,6.30
2023-03-15T19:50:11.052Z,7.43
2023-03-15T19:53:13.877Z,7.15
2023-03-15T19:56:18.433Z,6.72
2023-03-15T19:59:21.434Z,7.50
2023-03-15T20:02:24.533Z,7.73
2023-03-15T20:05:27.923Z,8.52
2023-03-15T20:08:30.733Z,6.75
2023-03-15T20:11:34.750Z,7.30
2023-03-15T20:14:38.429Z,9.70
2023-03-15T20:17:41.611Z,11.03
2023-03-15T20:20:44.461Z,10.57
2023-03-15T20:23:47.945Z,10.18
2023-03-15T20:26:51.936Z,4.15
2023-03-15T20:29:56.600Z,4.37
2023-03-15T20:33:00.330Z,4.37
2023-03-15T20:36:04.101Z,4.45
2023-03-15T20:39:06.861Z,7.15
2023-03-15T20:42:09.719Z,4.22
2023-03-15T20:45:13.571Z,3.77
2023-03-15T20:48:16.331Z,3.33
2023-03-15T20:51:19.716Z,3.65
2023-03-15T20:54:22.482Z,2.72
2023-03-15T20:57:25.310Z,5.15
2023-03-15T21:00:29.330Z,4.07
2023-03-15T21:03:34.140Z,3.53
2023-03-15T21:06:37.027Z,4.63
2023-03-15T21:09:40.706Z,4.13
2023-03-15T21:12:46.535Z,4.50
2023-03-15T21:15:53.209Z,4.13
2023-03-15T21:18:56.390Z,4.35
2023-03-15T21:22:01.113Z,5.82
2023-03-15T21:25:04.186Z,5.07
2023-03-15T21:28:07.410Z,3.25
2023-03-15T21:31:09.998Z,5.40
2023-03-15T21:34:12.683Z,6.40
2023-03-15T21:37:15.373Z,4.57
2023-03-15T21:40:18.176Z,2.63
2023-03-15T21:43:20.967Z,5.65
2023-03-15T21:46:23.916Z,6.03
2023-03-15T21:49:26.375Z,4.20
2023-03-15T21:52:28.937Z,4.50
2023-03-15T21:55:33.666Z,6.60
2023-03-15T21:58:36.283Z,6.60
2023-03-15T22:01:39.043Z,6.70
2023-03-15T22:04:44.911Z,4.05
2023-03-15T22:07:47.770Z,6.25
2023-03-15T22:10:54.767Z,5.70
2023-03-15T22:13:58.201Z,6.57
2023-03-15T22:17:04.654Z,5.10
2023-03-15T22:20:17.087Z,3.83
2023-03-15T22:23:19.703Z,6.28
2023-03-15T22:26:22.537Z,10.13
2023-03-15T22:29:25.000Z,6.50
2023-03-15T22:32:27.620Z,7.30
2023-03-15T22:35:30.258Z,6.20
2023-03-15T22:38:37.956Z,8.18
2023-03-15T22:41:42.010Z,6.28
2023-03-15T22:44:45.783Z,6.97
2023-03-15T22:47:49.465Z,7.00
2023-03-15T22:50:58.590Z,3.45
2023-03-15T22:54:01.212Z,4.63
2023-03-15T22:57:03.762Z,4.03
2023-03-15T23:00:14.030Z,3.70
2023-03-15T23:03:16.832Z,3.70
2023-03-15T23:06:20.225Z,3.70
2023-03-15T23:09:22.892Z,2.70
2023-03-15T23:12:35.800Z,4.32
2023-03-15T23:15:39.196Z,4.70
2023-03-15T23:18:42.442Z,2.87
2023-03-15T23:21:45.350Z,7.32
2023-03-15T23:24:47.794Z,4.22
2023-03-15T23:27:50.681Z,4.85
2023-03-15T23:30:53.300Z,4.27
2023-03-15T23:33:55.824Z,2.05
2023-03-15T23:36:58.197Z,3.50
2023-03-15T23:40:01.848Z,4.18
2023-03-15T23:43:05.894Z,5.70
2023-03-15T23:46:08.610Z,4.20
2023-03-15T23:49:12.670Z,2.08
2023-03-15T23:52:15.676Z,3.28
2023-03-15T23:55:18.444Z,2.38
2023-03-15T23:58:21.272Z,3.60
